This is the latest recevied weather packets stored in our database for station/object PP5CI-13. If no packets are shown the sender has not sent any weather packets the latest 1 day(s).
| Time | Temp. | Humidity | Pressure | Rain* | Wind** | Luminosity | Snow |
|---|---|---|---|---|---|---|---|
| 1777998919 | 29.44° C | 70% | 1018.2 hPa | 0 mm | 0.45 m/s, 137° | - | - |
| 1777998325 | 29.44° C | 71% | 1018.2 hPa | 0 mm | 0.89 m/s, 262° | - | - |
| 1777997719 | 29.44° C | 71% | 1018.2 hPa | 0 mm | 0.89 m/s, 268° | - | - |
| 1777997118 | 29.44° C | 70% | 1018.2 hPa | 0 mm | 1.34 m/s, 256° | - | - |
| 1777996519 | 29.44° C | 71% | 1018.2 hPa | 0 mm | 0.89 m/s, 131° | - | - |
| 1777995919 | 29.44° C | 70% | 1018.2 hPa | 0 mm | 0.89 m/s, 252° | - | - |
| 1777995319 | 28.89° C | 72% | 1018.7 hPa | 0 mm | 0.45 m/s, 230° | - | - |
| 1777994719 | 28.33° C | 72% | 1019.2 hPa | 0 mm | 0.89 m/s, 261° | - | - |
| 1777994118 | 28.33° C | 73% | 1019.2 hPa | 0 mm | 1.34 m/s, 270° | - | - |
| 1777993519 | 27.78° C | 73% | 1019.2 hPa | 0 mm | 1.79 m/s, 268° | - | - |
| 1777992919 | 27.78° C | 73% | 1019.2 hPa | 0 mm | 0.89 m/s, 122° | - | - |
| 1777992319 | 27.22° C | 75% | 1019.2 hPa | 0 mm | 0.89 m/s, 131° | - | - |
| 1777991719 | 27.22° C | 74% | 1020.2 hPa | 0 mm | 1.34 m/s, 266° | - | - |
| 1777990519 | 26.67° C | 75% | 1020.2 hPa | 0 mm | 0 m/s | - | - |
| 1777989919 | 26.67° C | 75% | 1020.2 hPa | 0 mm | 0.89 m/s, 255° | - | - |
| 1777989319 | 26.11° C | 77% | 1020.2 hPa | 0 mm | 0.89 m/s, 270° | - | - |
| 1777988719 | 26.11° C | 77% | 1020.2 hPa | 0 mm | 0.45 m/s, 262° | - | - |
| 1777988119 | 25° C | 80% | - | 0 mm | 0.45 m/s, 154° | - | - |
| 1777987519 | 25.56° C | 79% | - | 0 mm | 0 m/s | - | - |
| 1777986919 | 24.44° C | 82% | - | 0 mm | 0.45 m/s, 159° | - | - |
| 1777986318 | 23.33° C | 86% | 1020.2 hPa | 0 mm | 0 m/s | - | - |
| 1777985719 | 22.78° C | 87% | 1020.2 hPa | 0 mm | 0 m/s | - | - |
| 1777985119 | 21.67° C | 92% | 1020.2 hPa | 0 mm | 0 m/s | - | - |
| 1777984519 | 21.11° C | 93% | 1020.2 hPa | 0 mm | 0 m/s | - | - |
| 1777983319 | 21.11° C | 95% | 1020.2 hPa | 0 mm | 0.89 m/s, 265° | - | - |
* Rain latest hour (hover to see other rain measurements)
** Current wind speed in m/s (hover to see current wind gust speed)